Terminal Aerodrome Forecast
Issued by NWS

Home | Current Version | Previous Version | Text Only | Print | Product List | Glossary On
Versions: 1 2 3 4 5 6 7 8 9 10 11 12 13 14 15 16 17 18 19 20 21 22 23 24 25
000
FTUS41 KBOX 300541
TAFHYA
TAF
KHYA 300541Z 3006/3106 16004KT P6SM OVC060
     FM300900 16005KT 6SM -SNRA OVC015
     FM301400 17007KT 3SM -RA OVC025
     FM302000 29007KT 2SM -RA OVC008
     FM302200 32010G18KT P6SM OVC008
     FM310200 32014G25KT 3SM -SN OVC008=

USA.gov is the U.S. government's official web portal to all federal, state and local government web resources and services.